sensor_id;sensor_type;location;lat;lon;timestamp;pressure;altitude;pressure_sealevel;temperature;humidity
42067;BME280;27734;47.028;28.820;2023-02-28T00:00:38;101637.47;;;1.87;91.60
42067;BME280;27734;47.028;28.820;2023-02-28T00:03:20;101640.20;;;1.88;91.53
42067;BME280;27734;47.028;28.820;2023-02-28T00:05:51;101648.09;;;1.90;91.91
42067;BME280;27734;47.028;28.820;2023-02-28T00:08:22;101637.61;;;1.88;91.69
42067;BME280;27734;47.028;28.820;2023-02-28T00:10:53;101646.30;;;1.89;91.50
42067;BME280;27734;47.028;28.820;2023-02-28T00:13:25;101651.21;;;1.86;91.36
42067;BME280;27734;47.028;28.820;2023-02-28T00:16:05;101650.94;;;1.83;91.62
42067;BME280;27734;47.028;28.820;2023-02-28T00:18:36;101650.01;;;1.82;91.31
42067;BME280;27734;47.028;28.820;2023-02-28T00:21:08;101651.21;;;1.86;91.51
42067;BME280;27734;47.028;28.820;2023-02-28T00:23:39;101651.97;;;1.85;91.78
42067;BME280;27734;47.028;28.820;2023-02-28T00:26:11;101665.32;;;1.89;91.55
42067;BME280;27734;47.028;28.820;2023-02-28T00:28:42;101672.47;;;1.92;91.37
42067;BME280;27734;47.028;28.820;2023-02-28T00:31:14;101667.42;;;1.93;91.58
42067;BME280;27734;47.028;28.820;2023-02-28T00:33:45;101666.77;;;1.96;91.55
42067;BME280;27734;47.028;28.820;2023-02-28T00:36:18;101675.47;;;1.96;91.63
42067;BME280;27734;47.028;28.820;2023-02-28T00:38:49;101679.71;;;1.96;91.99
42067;BME280;27734;47.028;28.820;2023-02-28T00:41:20;101678.81;;;1.95;91.56
42067;BME280;27734;47.028;28.820;2023-02-28T00:43:51;101681.27;;;1.94;91.21
42067;BME280;27734;47.028;28.820;2023-02-28T00:46:23;101686.30;;;1.92;91.12
42067;BME280;27734;47.028;28.820;2023-02-28T00:48:54;101694.20;;;1.94;91.50
42067;BME280;27734;47.028;28.820;2023-02-28T00:51:25;101697.42;;;1.91;91.32
42067;BME280;27734;47.028;28.820;2023-02-28T00:53:57;101698.97;;;1.89;91.10
42067;BME280;27734;47.028;28.820;2023-02-28T00:56:28;101698.70;;;1.86;91.66
42067;BME280;27734;47.028;28.820;2023-02-28T00:58:59;101699.32;;;1.84;91.53
42067;BME280;27734;47.028;28.820;2023-02-28T01:01:31;101696.59;;;1.82;91.11
42067;BME280;27734;47.028;28.820;2023-02-28T01:04:02;101697.39;;;1.81;90.41
42067;BME280;27734;47.028;28.820;2023-02-28T01:06:34;101697.25;;;1.79;90.78
42067;BME280;27734;47.028;28.820;2023-02-28T01:09:06;101695.28;;;1.77;90.82
42067;BME280;27734;47.028;28.820;2023-02-28T01:11:38;101695.14;;;1.75;91.42
42067;BME280;27734;47.028;28.820;2023-02-28T01:14:13;101694.86;;;1.72;91.44
42067;BME280;27734;47.028;28.820;2023-02-28T01:16:45;101695.14;;;1.75;91.08
42067;BME280;27734;47.028;28.820;2023-02-28T01:19:19;101697.45;;;1.72;90.90
42067;BME280;27734;47.028;28.820;2023-02-28T01:21:50;101698.21;;;1.71;90.56
42067;BME280;27734;47.028;28.820;2023-02-28T01:24:22;101702.62;;;1.72;91.23
42067;BME280;27734;47.028;28.820;2023-02-28T01:26:53;101703.53;;;1.73;90.94
42067;BME280;27734;47.028;28.820;2023-02-28T01:29:26;101704.46;;;1.73;91.24
42067;BME280;27734;47.028;28.820;2023-02-28T01:31:58;101705.22;;;1.72;90.63
42067;BME280;27734;47.028;28.820;2023-02-28T01:34:30;101711.43;;;1.74;91.06
42067;BME280;27734;47.028;28.820;2023-02-28T01:37:01;101717.67;;;1.76;91.17
42067;BME280;27734;47.028;28.820;2023-02-28T01:39:33;101721.30;;;1.78;90.85
42067;BME280;27734;47.028;28.820;2023-02-28T01:42:04;101710.05;;;1.78;91.35
42067;BME280;27734;47.028;28.820;2023-02-28T01:44:57;101707.33;;;1.76;90.79
42067;BME280;27734;47.028;28.820;2023-02-28T01:47:31;101716.88;;;1.77;90.69
42067;BME280;27734;47.028;28.820;2023-02-28T01:50:08;101721.30;;;1.78;91.18
42067;BME280;27734;47.028;28.820;2023-02-28T01:52:41;101713.53;;;1.78;91.43
42067;BME280;27734;47.028;28.820;2023-02-28T01:55:13;101711.22;;;1.82;91.39
42067;BME280;27734;47.028;28.820;2023-02-28T01:57:48;101717.44;;;1.84;90.63
42067;BME280;27734;47.028;28.820;2023-02-28T02:00:22;101707.74;;;1.81;91.02
42067;BME280;27734;47.028;28.820;2023-02-28T02:02:55;101711.98;;;1.80;90.62
42067;BME280;27734;47.028;28.820;2023-02-28T02:05:27;101709.13;;;1.77;91.20
42067;BME280;27734;47.028;28.820;2023-02-28T02:08:04;101713.27;;;1.75;91.27
42067;BME280;27734;47.028;28.820;2023-02-28T02:10:39;101723.61;;;1.75;90.82
42067;BME280;27734;47.028;28.820;2023-02-28T02:13:22;101721.78;;;1.74;91.00
42067;BME280;27734;47.028;28.820;2023-02-28T02:16:07;101727.61;;;1.72;90.98
42067;BME280;27734;47.028;28.820;2023-02-28T02:18:46;101725.64;;;1.69;90.75
42067;BME280;27734;47.028;28.820;2023-02-28T02:21:37;101731.58;;;1.68;91.32
42067;BME280;27734;47.028;28.820;2023-02-28T02:27:26;101743.34;;;1.65;90.65
42067;BME280;27734;47.028;28.820;2023-02-28T02:30:40;101740.47;;;1.61;90.90
42067;BME280;27734;47.028;28.820;2023-02-28T02:33:48;101739.43;;;1.59;91.27
42067;BME280;27734;47.028;28.820;2023-02-28T02:36:25;101738.39;;;1.57;91.04
42067;BME280;27734;47.028;28.820;2023-02-28T02:39:02;101740.05;;;1.57;90.24
42067;BME280;27734;47.028;28.820;2023-02-28T02:41:39;101733.83;;;1.55;90.94
42067;BME280;27734;47.028;28.820;2023-02-28T02:44:18;101723.34;;;1.53;90.88
42067;BME280;27734;47.028;28.820;2023-02-28T02:46:55;101732.80;;;1.53;90.93
42067;BME280;27734;47.028;28.820;2023-02-28T02:49:34;101722.31;;;1.51;90.52
42067;BME280;27734;47.028;28.820;2023-02-28T02:52:09;101724.61;;;1.48;90.67
42067;BME280;27734;47.028;28.820;2023-02-28T02:54:43;101725.51;;;1.49;90.77
42067;BME280;27734;47.028;28.820;2023-02-28T02:57:17;101718.65;;;1.49;90.96
42067;BME280;27734;47.028;28.820;2023-02-28T02:59:52;101715.16;;;1.49;90.15
42067;BME280;27734;47.028;28.820;2023-02-28T03:02:26;101714.27;;;1.48;90.53
42067;BME280;27734;47.028;28.820;2023-02-28T03:05:08;101720.34;;;1.49;90.87
42067;BME280;27734;47.028;28.820;2023-02-28T03:07:43;101732.38;;;1.48;90.88
42067;BME280;27734;47.028;28.820;2023-02-28T03:10:31;101727.95;;;1.47;90.46
42067;BME280;27734;47.028;28.820;2023-02-28T03:13:11;101732.23;;;1.47;90.14
42067;BME280;27734;47.028;28.820;2023-02-28T03:15:55;101739.85;;;1.45;90.53
42067;BME280;27734;47.028;28.820;2023-02-28T03:18:35;101744.09;;;1.44;90.79
42067;BME280;27734;47.028;28.820;2023-02-28T03:21:14;101738.02;;;1.44;90.41
42067;BME280;27734;47.028;28.820;2023-02-28T03:23:56;101735.44;;;1.44;90.84
42067;BME280;27734;47.028;28.820;2023-02-28T03:26:34;101740.47;;;1.42;90.67
42067;BME280;27734;47.028;28.820;2023-02-28T03:29:13;101749.13;;;1.43;90.91
42067;BME280;27734;47.028;28.820;2023-02-28T03:31:50;101755.09;;;1.42;90.38
42067;BME280;27734;47.028;28.820;2023-02-28T03:34:29;101754.16;;;1.41;90.29
42067;BME280;27734;47.028;28.820;2023-02-28T03:37:04;101764.50;;;1.41;90.63
42067;BME280;27734;47.028;28.820;2023-02-28T03:39:39;101765.44;;;1.42;90.39
42067;BME280;27734;47.028;28.820;2023-02-28T03:42:14;101762.84;;;1.42;90.59
42067;BME280;27734;47.028;28.820;2023-02-28T03:44:49;101760.26;;;1.42;90.87
42067;BME280;27734;47.028;28.820;2023-02-28T03:47:25;101760.12;;;1.40;90.75
42067;BME280;27734;47.028;28.820;2023-02-28T03:50:03;101769.53;;;1.40;90.31
42067;BME280;27734;47.028;28.820;2023-02-28T03:52:40;101776.39;;;1.39;90.98
42067;BME280;27734;47.028;28.820;2023-02-28T03:55:15;101770.47;;;1.40;90.74
42067;BME280;27734;47.028;28.820;2023-02-28T03:57:56;101766.19;;;1.41;90.28
42067;BME280;27734;47.028;28.820;2023-02-28T04:00:33;101763.60;;;1.41;90.36
42067;BME280;27734;47.028;28.820;2023-02-28T04:03:06;101763.46;;;1.39;90.84
42067;BME280;27734;47.028;28.820;2023-02-28T04:05:50;101764.22;;;1.38;90.76
42067;BME280;27734;47.028;28.820;2023-02-28T04:08:20;101769.25;;;1.37;91.11
42067;BME280;27734;47.028;28.820;2023-02-28T04:10:55;101760.59;;;1.36;90.87
42067;BME280;27734;47.028;28.820;2023-02-28T04:13:27;101762.13;;;1.34;90.98
42067;BME280;27734;47.028;28.820;2023-02-28T04:15:59;101759.41;;;1.33;90.39
42067;BME280;27734;47.028;28.820;2023-02-28T04:18:30;101768.06;;;1.33;90.66
42067;BME280;27734;47.028;28.820;2023-02-28T04:21:03;101774.13;;;1.34;91.04
42067;BME280;27734;47.028;28.820;2023-02-28T04:23:34;101769.89;;;1.34;90.61
42067;BME280;27734;47.028;28.820;2023-02-28T04:26:06;101771.41;;;1.32;90.42
42067;BME280;27734;47.028;28.820;2023-02-28T04:28:38;101764.44;;;1.31;90.69
42067;BME280;27734;47.028;28.820;2023-02-28T04:31:10;101777.37;;;1.31;90.99
42067;BME280;27734;47.028;28.820;2023-02-28T04:33:41;101769.75;;;1.33;90.46
42067;BME280;27734;47.028;28.820;2023-02-28T04:36:13;101768.67;;;1.31;90.65
42067;BME280;27734;47.028;28.820;2023-02-28T04:38:48;101779.02;;;1.31;90.06
42067;BME280;27734;47.028;28.820;2023-02-28T04:41:19;101781.61;;;1.31;90.87
42067;BME280;27734;47.028;28.820;2023-02-28T04:43:52;101789.66;;;1.34;90.89
42067;BME280;27734;47.028;28.820;2023-02-28T04:46:23;101791.20;;;1.32;90.79
42067;BME280;27734;47.028;28.820;2023-02-28T04:48:54;101792.09;;;1.32;90.85
42067;BME280;27734;47.028;28.820;2023-02-28T04:51:26;101792.88;;;1.31;90.39
42067;BME280;27734;47.028;28.820;2023-02-28T04:53:57;101793.64;;;1.30;90.91
42067;BME280;27734;47.028;28.820;2023-02-28T04:56:29;101799.56;;;1.29;90.92
42067;BME280;27734;47.028;28.820;2023-02-28T04:59:00;101798.81;;;1.30;90.29
42067;BME280;27734;47.028;28.820;2023-02-28T05:01:33;101799.56;;;1.29;90.23
42067;BME280;27734;47.028;28.820;2023-02-28T05:04:04;101818.45;;;1.28;90.32
42067;BME280;27734;47.028;28.820;2023-02-28T05:06:35;101814.19;;;1.29;90.29
42067;BME280;27734;47.028;28.820;2023-02-28T05:09:07;101822.84;;;1.29;90.29
42067;BME280;27734;47.028;28.820;2023-02-28T05:11:38;101817.81;;;1.31;90.24
42067;BME280;27734;47.028;28.820;2023-02-28T05:14:12;101825.72;;;1.32;90.44
42067;BME280;27734;47.028;28.820;2023-02-28T05:16:42;101828.30;;;1.32;90.24
42067;BME280;27734;47.028;28.820;2023-02-28T05:19:13;101830.28;;;1.35;90.48
42067;BME280;27734;47.028;28.820;2023-02-28T05:21:51;101833.91;;;1.37;90.21
42067;BME280;27734;47.028;28.820;2023-02-28T05:24:23;101827.22;;;1.39;90.40
42067;BME280;27734;47.028;28.820;2023-02-28T05:26:55;101829.81;;;1.39;90.08
42067;BME280;27734;47.028;28.820;2023-02-28T05:29:26;101820.22;;;1.38;90.54
42067;BME280;27734;47.028;28.820;2023-02-28T05:31:57;101820.22;;;1.38;90.08
42067;BME280;27734;47.028;28.820;2023-02-28T05:34:29;101825.54;;;1.39;90.52
42067;BME280;27734;47.028;28.820;2023-02-28T05:37:00;101825.39;;;1.38;89.97
42067;BME280;27734;47.028;28.820;2023-02-28T05:39:32;101836.64;;;1.38;90.52
42067;BME280;27734;47.028;28.820;2023-02-28T05:42:04;101830.56;;;1.38;90.02
42067;BME280;27734;47.028;28.820;2023-02-28T05:44:39;101839.22;;;1.38;90.24
42067;BME280;27734;47.028;28.820;2023-02-28T05:47:12;101846.09;;;1.38;89.93
42067;BME280;27734;47.028;28.820;2023-02-28T05:49:45;101839.52;;;1.41;89.94
42067;BME280;27734;47.028;28.820;2023-02-28T05:52:20;101846.66;;;1.44;89.74
42067;BME280;27734;47.028;28.820;2023-02-28T05:54:51;101853.81;;;1.47;89.94
42067;BME280;27734;47.028;28.820;2023-02-28T05:57:23;101853.16;;;1.49;89.68
42067;BME280;27734;47.028;28.820;2023-02-28T05:59:55;101848.28;;;1.52;89.96
42067;BME280;27734;47.028;28.820;2023-02-28T06:02:26;101863.19;;;1.55;88.89
42067;BME280;27734;47.028;28.820;2023-02-28T06:04:58;101865.17;;;1.57;89.31
42067;BME280;27734;47.028;28.820;2023-02-28T06:07:29;101861.94;;;1.60;89.34
42067;BME280;27734;47.028;28.820;2023-02-28T06:10:01;101864.20;;;1.66;89.36
42067;BME280;27734;47.028;28.820;2023-02-28T06:12:32;101860.20;;;1.69;88.54
42067;BME280;27734;47.028;28.820;2023-02-28T06:15:04;101852.44;;;1.69;88.57
42067;BME280;27734;47.028;28.820;2023-02-28T06:17:36;101852.73;;;1.72;88.50
42067;BME280;27734;47.028;28.820;2023-02-28T06:20:09;101866.99;;;1.77;88.78
42067;BME280;27734;47.028;28.820;2023-02-28T06:22:42;101857.29;;;1.75;88.19
42067;BME280;27734;47.028;28.820;2023-02-28T06:25:17;101862.61;;;1.76;88.12
42067;BME280;27734;47.028;28.820;2023-02-28T06:27:48;101861.06;;;1.78;87.76
42067;BME280;27734;47.028;28.820;2023-02-28T06:30:21;101861.06;;;1.78;87.34
42067;BME280;27734;47.028;28.820;2023-02-28T06:32:56;101859.04;;;1.85;87.65
42067;BME280;27734;47.028;28.820;2023-02-28T06:35:28;101860.36;;;1.90;87.56
42067;BME280;27734;47.028;28.820;2023-02-28T06:38:01;101865.55;;;1.90;87.92
42067;BME280;27734;47.028;28.820;2023-02-28T06:40:33;101864.03;;;1.92;88.11
42067;BME280;27734;47.028;28.820;2023-02-28T06:43:05;101864.73;;;2.00;88.06
42067;BME280;27734;47.028;28.820;2023-02-28T06:45:37;101862.70;;;2.06;87.61
42067;BME280;27734;47.028;28.820;2023-02-28T06:48:08;101863.89;;;2.09;87.68
42067;BME280;27734;47.028;28.820;2023-02-28T06:50:40;101865.72;;;2.10;87.69
42067;BME280;27734;47.028;28.820;2023-02-28T06:53:16;101868.41;;;2.12;87.93
42067;BME280;27734;47.028;28.820;2023-02-28T06:55:48;101858.98;;;2.12;85.57
42067;BME280;27734;47.028;28.820;2023-02-28T06:58:19;101867.59;;;2.22;86.39
42067;BME280;27734;47.028;28.820;2023-02-28T07:00:53;101861.28;;;2.28;86.41
42067;BME280;27734;47.028;28.820;2023-02-28T07:03:27;101862.74;;;2.35;86.63
42067;BME280;27734;47.028;28.820;2023-02-28T07:05:59;101866.88;;;2.33;86.10
42067;BME280;27734;47.028;28.820;2023-02-28T07:08:31;101858.08;;;2.31;85.45
42067;BME280;27734;47.028;28.820;2023-02-28T07:11:05;101857.84;;;2.38;85.94
42067;BME280;27734;47.028;28.820;2023-02-28T07:13:37;101874.73;;;2.43;86.26
42067;BME280;27734;47.028;28.820;2023-02-28T07:16:12;101880.81;;;2.44;84.63
42067;BME280;27734;47.028;28.820;2023-02-28T07:18:44;101880.19;;;2.46;85.20
42067;BME280;27734;47.028;28.820;2023-02-28T07:21:17;101892.00;;;2.53;85.71
42067;BME280;27734;47.028;28.820;2023-02-28T07:23:55;101882.33;;;2.61;85.80
42067;BME280;27734;47.028;28.820;2023-02-28T07:26:31;101887.27;;;2.68;85.11
42067;BME280;27734;47.028;28.820;2023-02-28T07:29:09;101886.92;;;2.74;86.28
42067;BME280;27734;47.028;28.820;2023-02-28T07:31:42;101893.06;;;2.84;85.60
42067;BME280;27734;47.028;28.820;2023-02-28T07:34:17;101888.16;;;2.87;84.89
42067;BME280;27734;47.028;28.820;2023-02-28T07:36:49;101887.39;;;2.88;84.90
42067;BME280;27734;47.028;28.820;2023-02-28T07:39:35;101892.05;;;2.93;84.42
42067;BME280;27734;47.028;28.820;2023-02-28T07:42:14;101890.25;;;2.92;83.91
42067;BME280;27734;47.028;28.820;2023-02-28T07:44:58;101903.24;;;3.02;84.29
42067;BME280;27734;47.028;28.820;2023-02-28T07:47:51;101898.44;;;2.96;83.38
42067;BME280;27734;47.028;28.820;2023-02-28T07:50:32;101895.33;;;3.00;82.41
42067;BME280;27734;47.028;28.820;2023-02-28T07:53:35;101895.98;;;2.98;83.62
42067;BME280;27734;47.028;28.820;2023-02-28T07:56:14;101895.59;;;3.03;84.83
42067;BME280;27734;47.028;28.820;2023-02-28T07:58:48;101900.06;;;3.15;83.65
42067;BME280;27734;47.028;28.820;2023-02-28T08:01:26;101909.78;;;3.17;83.91
42067;BME280;27734;47.028;28.820;2023-02-28T08:03:58;101903.30;;;3.22;83.82
42067;BME280;27734;47.028;28.820;2023-02-28T08:06:33;101905.31;;;3.35;83.94
42067;BME280;27734;47.028;28.820;2023-02-28T08:09:11;101915.56;;;3.44;83.51
42067;BME280;27734;47.028;28.820;2023-02-28T08:11:53;101923.78;;;3.59;83.68
42067;BME280;27734;47.028;28.820;2023-02-28T08:14:32;101924.70;;;3.70;83.68
42067;BME280;27734;47.028;28.820;2023-02-28T08:17:06;101930.30;;;3.74;84.23
42067;BME280;27734;47.028;28.820;2023-02-28T08:19:41;101934.19;;;3.80;83.14
42067;BME280;27734;47.028;28.820;2023-02-28T08:22:16;101928.48;;;3.84;83.17
42067;BME280;27734;47.028;28.820;2023-02-28T08:24:51;101932.11;;;3.86;82.91
42067;BME280;27734;47.028;28.820;2023-02-28T08:27:26;101933.81;;;3.85;83.04
42067;BME280;27734;47.028;28.820;2023-02-28T08:30:03;101939.01;;;3.85;82.14
42067;BME280;27734;47.028;28.820;2023-02-28T08:32:41;101930.05;;;3.92;82.34
42067;BME280;27734;47.028;28.820;2023-02-28T08:35:13;101931.73;;;4.02;83.18
42067;BME280;27734;47.028;28.820;2023-02-28T08:37:53;101934.08;;;4.09;82.95
42067;BME280;27734;47.028;28.820;2023-02-28T08:40:28;101933.95;;;4.18;82.05
42067;BME280;27734;47.028;28.820;2023-02-28T08:43:03;101930.69;;;4.20;82.70
42067;BME280;27734;47.028;28.820;2023-02-28T08:48:50;101928.98;;;4.31;80.99
42067;BME280;27734;47.028;28.820;2023-02-28T08:52:03;101926.09;;;4.48;82.90
42067;BME280;27734;47.028;28.820;2023-02-28T08:54:53;101932.48;;;4.52;80.53
42067;BME280;27734;47.028;28.820;2023-02-28T08:57:31;101926.39;;;4.41;79.12
42067;BME280;27734;47.028;28.820;2023-02-28T09:00:06;101923.12;;;4.44;81.71
42067;BME280;27734;47.028;28.820;2023-02-28T09:02:40;101923.88;;;4.53;81.56
42067;BME280;27734;47.028;28.820;2023-02-28T09:05:13;101924.39;;;4.59;81.45
42067;BME280;27734;47.028;28.820;2023-02-28T09:07:53;101915.68;;;4.69;82.67
42067;BME280;27734;47.028;28.820;2023-02-28T09:10:34;101908.59;;;4.78;81.14
42067;BME280;27734;47.028;28.820;2023-02-28T09:13:30;101909.28;;;4.76;79.00
42067;BME280;27734;47.028;28.820;2023-02-28T09:16:05;101910.30;;;4.78;80.46
42067;BME280;27734;47.028;28.820;2023-02-28T09:18:41;101918.48;;;4.82;80.28
42067;BME280;27734;47.028;28.820;2023-02-28T09:21:17;101904.83;;;4.85;78.83
42067;BME280;27734;47.028;28.820;2023-02-28T09:23:54;101917.02;;;4.86;80.09
42067;BME280;27734;47.028;28.820;2023-02-28T09:26:28;101915.36;;;4.86;80.49
42067;BME280;27734;47.028;28.820;2023-02-28T09:29:08;101915.42;;;4.98;80.47
42067;BME280;27734;47.028;28.820;2023-02-28T09:31:41;101920.88;;;5.01;79.17
42067;BME280;27734;47.028;28.820;2023-02-28T09:34:13;101915.39;;;5.09;80.43
42067;BME280;27734;47.028;28.820;2023-02-28T09:36:49;101914.05;;;5.14;80.53
42067;BME280;27734;47.028;28.820;2023-02-28T09:39:27;101927.92;;;5.25;80.67
42067;BME280;27734;47.028;28.820;2023-02-28T09:42:02;101917.27;;;5.21;78.54
42067;BME280;27734;47.028;28.820;2023-02-28T09:44:42;101915.11;;;5.16;77.87
42067;BME280;27734;47.028;28.820;2023-02-28T09:47:32;101911.33;;;5.12;78.45
42067;BME280;27734;47.028;28.820;2023-02-28T09:50:16;101906.12;;;5.12;78.58
42067;BME280;27734;47.028;28.820;2023-02-28T09:52:50;101910.16;;;5.19;77.25
42067;BME280;27734;47.028;28.820;2023-02-28T09:55:28;101905.44;;;5.25;77.48
42067;BME280;27734;47.028;28.820;2023-02-28T09:58:04;101898.52;;;5.26;77.83
42067;BME280;27734;47.028;28.820;2023-02-28T10:00:40;101902.39;;;5.31;77.61
42067;BME280;27734;47.028;28.820;2023-02-28T10:03:33;101900.92;;;5.34;76.88
42067;BME280;27734;47.028;28.820;2023-02-28T10:06:14;101894.95;;;5.35;77.36
42067;BME280;27734;47.028;28.820;2023-02-28T10:08:58;101893.72;;;5.42;77.53
42067;BME280;27734;47.028;28.820;2023-02-28T10:11:43;101903.97;;;5.51;76.52
42067;BME280;27734;47.028;28.820;2023-02-28T10:14:23;101901.31;;;5.61;76.92
42067;BME280;27734;47.028;28.820;2023-02-28T10:17:03;101897.72;;;5.71;76.09
42067;BME280;27734;47.028;28.820;2023-02-28T10:19:47;101897.83;;;5.72;76.46
42067;BME280;27734;47.028;28.820;2023-02-28T10:22:29;101885.52;;;5.82;77.55
42067;BME280;27734;47.028;28.820;2023-02-28T10:25:17;101897.31;;;5.88;76.24
42067;BME280;27734;47.028;28.820;2023-02-28T10:27:51;101891.67;;;5.94;75.51
42067;BME280;27734;47.028;28.820;2023-02-28T10:30:26;101883.74;;;5.92;74.25
42067;BME280;27734;47.028;28.820;2023-02-28T10:33:00;101887.91;;;5.90;72.88
42067;BME280;27734;47.028;28.820;2023-02-28T10:35:35;101883.81;;;5.82;74.18
42067;BME280;27734;47.028;28.820;2023-02-28T10:38:19;101884.28;;;5.88;75.71
42067;BME280;27734;47.028;28.820;2023-02-28T10:41:05;101875.23;;;5.95;75.58
42067;BME280;27734;47.028;28.820;2023-02-28T10:43:46;101872.81;;;6.08;76.29
42067;BME280;27734;47.028;28.820;2023-02-28T10:46:19;101868.64;;;6.22;76.02
42067;BME280;27734;47.028;28.820;2023-02-28T10:49:11;101863.55;;;6.24;75.49
42067;BME280;27734;47.028;28.820;2023-02-28T10:51:57;101865.60;;;6.28;74.78
42067;BME280;27734;47.028;28.820;2023-02-28T10:54:43;101862.06;;;6.27;75.94
42067;BME280;27734;47.028;28.820;2023-02-28T10:57:21;101858.80;;;6.30;75.06
42067;BME280;27734;47.028;28.820;2023-02-28T11:00:12;101852.69;;;6.29;74.09
42067;BME280;27734;47.028;28.820;2023-02-28T11:02:55;101844.16;;;6.32;74.37
42067;BME280;27734;47.028;28.820;2023-02-28T11:05:41;101846.66;;;6.30;74.21
42067;BME280;27734;47.028;28.820;2023-02-28T11:08:19;101847.91;;;6.24;73.26
42067;BME280;27734;47.028;28.820;2023-02-28T11:11:03;101844.06;;;6.19;74.17
42067;BME280;27734;47.028;28.820;2023-02-28T11:13:51;101840.87;;;6.23;72.86
42067;BME280;27734;47.028;28.820;2023-02-28T11:16:35;101841.55;;;6.32;72.93
42067;BME280;27734;47.028;28.820;2023-02-28T11:19:23;101838.61;;;6.27;72.36
42067;BME280;27734;47.028;28.820;2023-02-28T11:22:03;101836.34;;;6.32;73.77
42067;BME280;27734;47.028;28.820;2023-02-28T11:24:42;101841.56;;;6.44;73.89
42067;BME280;27734;47.028;28.820;2023-02-28T11:27:43;101835.09;;;6.39;73.31
42067;BME280;27734;47.028;28.820;2023-02-28T11:30:36;101838.73;;;6.41;73.32
42067;BME280;27734;47.028;28.820;2023-02-28T11:33:29;101838.51;;;6.38;72.32
42067;BME280;27734;47.028;28.820;2023-02-28T11:36:08;101841.00;;;6.36;72.53
42067;BME280;27734;47.028;28.820;2023-02-28T11:38:42;101833.41;;;6.39;72.52
42067;BME280;27734;47.028;28.820;2023-02-28T11:41:41;101834.09;;;6.48;73.04
42067;BME280;27734;47.028;28.820;2023-02-28T11:44:32;101837.14;;;6.55;72.00
42067;BME280;27734;47.028;28.820;2023-02-28T11:47:18;101833.61;;;6.54;72.44
42067;BME280;27734;47.028;28.820;2023-02-28T11:50:22;101817.73;;;6.51;72.08
42067;BME280;27734;47.028;28.820;2023-02-28T11:53:21;101824.78;;;6.52;71.91
42067;BME280;27734;47.028;28.820;2023-02-28T11:56:01;101826.04;;;6.45;71.23
42067;BME280;27734;47.028;28.820;2023-02-28T11:59:01;101831.70;;;6.52;72.58
42067;BME280;27734;47.028;28.820;2023-02-28T12:02:03;101827.83;;;6.46;69.66
42067;BME280;27734;47.028;28.820;2023-02-28T12:04:46;101823.64;;;6.37;69.82
42067;BME280;27734;47.028;28.820;2023-02-28T12:07:35;101821.38;;;6.41;69.53
42067;BME280;27734;47.028;28.820;2023-02-28T12:10:18;101819.78;;;6.43;69.69
42067;BME280;27734;47.028;28.820;2023-02-28T12:13:04;101813.89;;;6.46;71.12
42067;BME280;27734;47.028;28.820;2023-02-28T12:18:57;101809.80;;;6.61;70.95
42067;BME280;27734;47.028;28.820;2023-02-28T12:21:42;101812.08;;;6.57;70.59
42067;BME280;27734;47.028;28.820;2023-02-28T12:24:33;101808.45;;;6.55;71.48
42067;BME280;27734;47.028;28.820;2023-02-28T12:27:13;101804.36;;;6.58;71.59
42067;BME280;27734;47.028;28.820;2023-02-28T12:29:52;101814.91;;;6.60;70.06
42067;BME280;27734;47.028;28.820;2023-02-28T12:32:33;101800.30;;;6.50;70.59
42067;BME280;27734;47.028;28.820;2023-02-28T12:35:14;101810.02;;;6.53;70.49
42067;BME280;27734;47.028;28.820;2023-02-28T12:37:53;101808.12;;;6.50;69.86
42067;BME280;27734;47.028;28.820;2023-02-28T12:41:01;101800.52;;;6.41;70.32
42067;BME280;27734;47.028;28.820;2023-02-28T12:44:04;101807.78;;;6.45;70.46
42067;BME280;27734;47.028;28.820;2023-02-28T12:47:05;101802.12;;;6.39;70.36
42067;BME280;27734;47.028;28.820;2023-02-28T12:52:55;101803.47;;;6.58;71.08
42067;BME280;27734;47.028;28.820;2023-02-28T12:55:38;101797.88;;;6.65;70.39
42067;BME280;27734;47.028;28.820;2023-02-28T12:58:26;101797.55;;;6.60;70.17
42067;BME280;27734;47.028;28.820;2023-02-28T13:07:35;101800.52;;;6.41;69.82
42067;BME280;27734;47.028;28.820;2023-02-28T13:10:21;101787.26;;;6.38;69.73
42067;BME280;27734;47.028;28.820;2023-02-28T13:13:01;101784.42;;;6.35;68.48
42067;BME280;27734;47.028;28.820;2023-02-28T13:15:38;101778.31;;;6.23;69.78
42067;BME280;27734;47.028;28.820;2023-02-28T13:18:34;101777.08;;;6.18;69.28
42067;BME280;27734;47.028;28.820;2023-02-28T13:21:26;101783.06;;;6.17;67.47
42067;BME280;27734;47.028;28.820;2023-02-28T13:24:04;101773.00;;;6.09;67.94
42067;BME280;27734;47.028;28.820;2023-02-28T13:29:59;101770.90;;;5.93;69.02
42067;BME280;27734;47.028;28.820;2023-02-28T13:32:38;101769.54;;;5.87;68.73
42067;BME280;27734;47.028;28.820;2023-02-28T13:35:37;101759.35;;;5.90;70.08
42067;BME280;27734;47.028;28.820;2023-02-28T13:38:34;101756.80;;;6.02;69.98
42067;BME280;27734;47.028;28.820;2023-02-28T13:44:06;101753.03;;;5.98;69.37
42067;BME280;27734;47.028;28.820;2023-02-28T13:49:45;101750.41;;;5.86;68.46
42067;BME280;27734;47.028;28.820;2023-02-28T13:52:22;101748.36;;;5.70;68.50
42067;BME280;27734;47.028;28.820;2023-02-28T13:55:21;101752.88;;;5.61;69.10
42067;BME280;27734;47.028;28.820;2023-02-28T13:58:15;101750.04;;;5.58;69.09
42067;BME280;27734;47.028;28.820;2023-02-28T14:01:21;101750.35;;;5.51;68.77
42067;BME280;27734;47.028;28.820;2023-02-28T14:04:21;101743.78;;;5.44;69.18
42067;BME280;27734;47.028;28.820;2023-02-28T14:07:07;101743.66;;;5.43;68.50
42067;BME280;27734;47.028;28.820;2023-02-28T14:09:48;101740.95;;;5.41;69.39
42067;BME280;27734;47.028;28.820;2023-02-28T14:12:56;101741.84;;;5.42;69.45
42067;BME280;27734;47.028;28.820;2023-02-28T14:15:58;101749.77;;;5.43;68.84